createdAt,value
2018-09-05T00:02:22.138Z,16.92
2018-09-05T00:07:19.976Z,16.69
2018-09-05T00:12:17.443Z,16.61
2018-09-05T00:17:14.864Z,16.69
2018-09-05T00:22:12.300Z,16.45
2018-09-05T00:27:09.707Z,16.35
2018-09-05T00:32:07.107Z,16.37
2018-09-05T00:37:05.207Z,16.23
2018-09-05T00:42:02.640Z,16.16
2018-09-05T00:47:00.060Z,16.09
2018-09-05T00:51:57.483Z,16.08
2018-09-05T00:56:54.973Z,16.22
2018-09-05T01:01:52.367Z,16.56
2018-09-05T01:06:49.847Z,16.26
2018-09-05T01:11:47.219Z,16.58
2018-09-05T01:16:44.652Z,16.48
2018-09-05T01:21:42.076Z,16.42
2018-09-05T01:26:39.527Z,16.24
2018-09-05T01:31:36.993Z,16.55
2018-09-05T01:36:34.423Z,16.93
2018-09-05T01:41:31.823Z,17.11
2018-09-05T01:46:29.244Z,17.14
2018-09-05T01:51:31.252Z,17.52
2018-09-05T01:56:28.673Z,17.45
2018-09-05T02:01:26.067Z,17.60
2018-09-05T02:06:23.580Z,17.68
2018-09-05T02:11:21.058Z,17.63
2018-09-05T02:16:18.529Z,17.69
2018-09-05T02:21:15.928Z,17.62
2018-09-05T02:26:13.303Z,17.59
2018-09-05T02:31:11.262Z,17.62
2018-09-05T02:36:08.676Z,17.45
2018-09-05T02:41:06.127Z,17.48
2018-09-05T02:46:03.586Z,17.36
2018-09-05T02:51:01.103Z,17.29
2018-09-05T02:56:01.860Z,17.40
2018-09-05T03:00:59.277Z,17.41
2018-09-05T03:05:56.839Z,17.35
2018-09-05T03:10:54.257Z,17.30
2018-09-05T03:15:51.767Z,17.28
2018-09-05T03:20:49.176Z,17.08
2018-09-05T03:25:46.590Z,17.11
2018-09-05T03:30:43.979Z,17.19
2018-09-05T03:35:41.378Z,17.09
2018-09-05T03:40:38.812Z,17.17
2018-09-05T03:45:36.805Z,17.08
2018-09-05T03:50:34.220Z,17.05
2018-09-05T03:55:31.631Z,16.90
2018-09-05T04:00:33.458Z,16.83
2018-09-05T04:05:31.321Z,16.84
2018-09-05T04:10:28.789Z,16.83
2018-09-05T04:15:30.487Z,16.86
2018-09-05T04:20:28.186Z,16.81
2018-09-05T04:25:25.612Z,16.76
2018-09-05T04:30:23.093Z,16.74
2018-09-05T04:35:20.549Z,16.65
2018-09-05T04:40:19.001Z,16.60
2018-09-05T04:45:16.592Z,16.58
2018-09-05T04:50:14.013Z,16.57
2018-09-05T04:55:11.428Z,16.53
2018-09-05T05:00:08.877Z,16.43
2018-09-05T05:05:06.424Z,16.47
2018-09-05T05:10:05.459Z,16.60
2018-09-05T05:15:02.872Z,16.45
2018-09-05T05:20:01.247Z,16.90
2018-09-05T05:24:58.656Z,19.08
2018-09-05T05:29:57.291Z,20.81
2018-09-05T05:34:54.682Z,22.12
2018-09-05T05:40:04.273Z,22.78
2018-09-05T05:45:02.036Z,23.04
2018-09-05T05:49:59.480Z,21.83
2018-09-05T05:54:56.911Z,21.40
2018-09-05T05:59:54.335Z,21.74
2018-09-05T06:04:52.003Z,20.46
2018-09-05T06:09:50.462Z,22.19
2018-09-05T06:14:47.871Z,20.35
2018-09-05T06:19:45.499Z,19.56
2018-09-05T06:24:42.976Z,18.99
2018-09-05T06:29:40.413Z,18.75
2018-09-05T06:34:37.819Z,18.82
2018-09-05T06:39:38.291Z,18.61
2018-09-05T06:44:35.801Z,19.05
2018-09-05T06:49:33.724Z,19.22
2018-09-05T06:54:31.152Z,19.24
2018-09-05T06:59:28.586Z,19.36
2018-09-05T07:04:26.006Z,19.40
2018-09-05T07:09:29.555Z,19.55
2018-09-05T07:14:27.235Z,19.66
2018-09-05T07:19:24.707Z,20.30
2018-09-05T07:24:22.191Z,20.02
2018-09-05T07:29:19.590Z,20.50
2018-09-05T07:34:17.035Z,20.48
2018-09-05T07:39:22.717Z,20.28
2018-09-05T07:44:20.272Z,20.70
2018-09-05T07:49:17.686Z,21.63
2018-09-05T07:54:16.577Z,21.45
2018-09-05T07:59:14.171Z,21.56
2018-09-05T08:04:11.650Z,21.92
2018-09-05T08:09:12.793Z,22.07
2018-09-05T08:14:10.268Z,21.97
2018-09-05T08:19:07.713Z,22.04
2018-09-05T08:24:05.153Z,22.44
2018-09-05T08:29:02.588Z,22.05
2018-09-05T08:34:00.019Z,22.40
2018-09-05T08:38:57.837Z,22.09
2018-09-05T08:43:55.335Z,23.22
2018-09-05T08:48:52.601Z,23.61
2018-09-05T08:53:50.341Z,23.12
2018-09-05T08:58:47.781Z,24.02
2018-09-05T09:03:45.431Z,24.06
2018-09-05T09:08:42.887Z,24.22
2018-09-05T09:13:40.355Z,24.17
2018-09-05T09:18:37.829Z,25.03
2018-09-05T09:23:35.267Z,25.25
2018-09-05T09:28:32.694Z,25.25
2018-09-05T09:33:30.120Z,24.98
2018-09-05T09:38:27.559Z,24.78
2018-09-05T09:43:25.008Z,24.76
2018-09-05T09:48:22.411Z,25.66
2018-09-05T09:53:19.797Z,25.01
2018-09-05T09:58:17.387Z,25.39
2018-09-05T10:03:20.644Z,26.30
2018-09-05T10:08:23.675Z,26.13
2018-09-05T10:13:26.575Z,25.73
2018-09-05T10:18:26.934Z,26.76
2018-09-05T10:23:24.671Z,25.24
2018-09-05T10:28:22.133Z,25.31
2018-09-05T10:33:19.555Z,26.03
2018-09-05T10:38:16.967Z,26.71
2018-09-05T10:43:14.391Z,26.61
2018-09-05T10:48:13.260Z,27.16
2018-09-05T10:53:10.749Z,26.73
2018-09-05T10:58:08.230Z,26.30
2018-09-05T11:03:05.766Z,25.87
2018-09-05T11:08:03.242Z,27.09
2018-09-05T11:13:00.702Z,26.88
2018-09-05T11:17:58.199Z,27.11
2018-09-05T11:22:55.616Z,26.04
2018-09-05T11:27:53.071Z,26.09
2018-09-05T11:32:50.498Z,26.89
2018-09-05T11:37:48.013Z,26.72
2018-09-05T11:42:45.427Z,27.38
2018-09-05T11:47:42.834Z,28.12
2018-09-05T11:52:40.301Z,27.57
2018-09-05T11:57:37.705Z,28.42
2018-09-05T12:02:35.182Z,27.75
2018-09-05T12:07:32.615Z,27.70
2018-09-05T12:12:30.126Z,27.07
2018-09-05T12:17:28.405Z,27.05
2018-09-05T12:22:25.900Z,28.08
2018-09-05T12:27:24.322Z,27.18
2018-09-05T12:32:21.764Z,28.33
2018-09-05T12:37:19.190Z,28.76
2018-09-05T12:42:18.917Z,26.78
2018-09-05T12:47:17.030Z,26.61
2018-09-05T12:52:14.507Z,27.32
2018-09-05T12:57:12.731Z,27.72
2018-09-05T13:02:10.172Z,28.88
2018-09-05T13:07:07.755Z,27.21
2018-09-05T13:12:05.422Z,27.54
2018-09-05T13:17:02.853Z,27.87
2018-09-05T13:22:00.286Z,27.86
2018-09-05T13:26:57.739Z,27.18
2018-09-05T13:31:55.610Z,27.73
2018-09-05T13:36:53.047Z,27.38
2018-09-05T13:41:50.536Z,26.94
2018-09-05T13:46:48.193Z,27.00
2018-09-05T13:51:51.211Z,27.10
2018-09-05T13:56:48.666Z,26.98
2018-09-05T14:01:46.085Z,27.93
2018-09-05T14:06:43.510Z,27.19
2018-09-05T14:11:41.091Z,27.57
2018-09-05T14:16:38.528Z,27.30
2018-09-05T14:21:35.998Z,26.87
2018-09-05T14:26:33.454Z,26.95
2018-09-05T14:31:30.948Z,28.16
2018-09-05T14:36:28.483Z,27.41
2018-09-05T14:41:25.924Z,27.86
2018-09-05T14:46:23.375Z,27.67
2018-09-05T14:51:20.816Z,26.90
2018-09-05T14:56:18.243Z,27.07
2018-09-05T15:01:15.769Z,27.31
2018-09-05T15:06:13.204Z,27.11
2018-09-05T15:11:10.678Z,27.43
2018-09-05T15:16:08.109Z,26.90
2018-09-05T15:21:05.931Z,26.48
2018-09-05T15:26:03.571Z,26.71
2018-09-05T15:31:01.011Z,26.77
2018-09-05T15:36:05.047Z,27.22
2018-09-05T15:41:03.040Z,26.98
2018-09-05T15:46:00.589Z,26.43
2018-09-05T15:50:58.148Z,27.13
2018-09-05T15:55:56.780Z,27.10
2018-09-05T16:00:54.191Z,26.42
2018-09-05T16:05:51.635Z,26.67
2018-09-05T16:10:51.509Z,26.44
2018-09-05T16:15:52.726Z,26.39
2018-09-05T16:20:50.227Z,26.68
2018-09-05T16:25:47.721Z,26.05
2018-09-05T16:30:45.187Z,26.12
2018-09-05T16:35:42.651Z,26.51
2018-09-05T16:40:40.189Z,26.89
2018-09-05T16:45:37.715Z,26.67
2018-09-05T16:50:35.185Z,26.82
2018-09-05T16:55:33.472Z,26.84
2018-09-05T17:00:31.847Z,26.92
2018-09-05T17:05:29.428Z,27.03
2018-09-05T17:10:29.428Z,26.59
2018-09-05T17:15:26.883Z,26.15
2018-09-05T17:20:25.990Z,25.90
2018-09-05T17:25:23.499Z,25.82
2018-09-05T17:30:26.424Z,25.43
2018-09-05T17:35:23.966Z,24.96
2018-09-05T17:40:24.816Z,24.45
2018-09-05T17:45:24.533Z,24.18
2018-09-05T17:50:22.055Z,23.96
2018-09-05T17:55:19.523Z,23.77
2018-09-05T18:00:16.959Z,23.59
2018-09-05T18:05:14.399Z,23.39
2018-09-05T18:10:12.486Z,23.32
2018-09-05T18:15:09.926Z,23.27
2018-09-05T18:20:07.415Z,23.15
2018-09-05T18:25:05.120Z,23.01
2018-09-05T18:30:02.904Z,22.89
2018-09-05T18:35:00.307Z,22.90
2018-09-05T18:39:58.760Z,22.73
2018-09-05T18:44:56.170Z,22.50
2018-09-05T18:49:53.627Z,22.26
2018-09-05T18:54:51.038Z,22.19
2018-09-05T18:59:48.467Z,21.82
2018-09-05T19:04:45.947Z,21.99
2018-09-05T19:09:46.427Z,21.52
2018-09-05T19:14:43.895Z,21.18
2018-09-05T19:19:41.291Z,21.14
2018-09-05T19:24:38.713Z,21.63
2018-09-05T19:29:36.123Z,21.13
2018-09-05T19:34:33.521Z,20.82
2018-09-05T19:39:41.263Z,21.10
2018-09-05T19:44:38.731Z,20.90
2018-09-05T19:49:36.118Z,20.82
2018-09-05T19:54:33.515Z,20.80
2018-09-05T19:59:30.919Z,20.78
2018-09-05T20:04:28.332Z,20.31
2018-09-05T20:09:30.427Z,20.51
2018-09-05T20:14:28.014Z,20.34
2018-09-05T20:19:25.475Z,20.25
2018-09-05T20:24:22.996Z,20.47
2018-09-05T20:29:20.395Z,20.40
2018-09-05T20:34:20.343Z,20.38
2018-09-05T20:39:21.908Z,20.22
2018-09-05T20:44:23.853Z,20.00
2018-09-05T20:49:24.840Z,20.00
2018-09-05T20:54:24.967Z,20.04
2018-09-05T20:59:31.210Z,19.89
2018-09-05T21:04:33.533Z,20.15
2018-09-05T21:09:38.727Z,20.04
2018-09-05T21:14:43.897Z,19.96
2018-09-05T21:19:43.367Z,19.92
2018-09-05T21:24:40.819Z,19.89
2018-09-05T21:29:38.252Z,19.62
2018-09-05T21:34:35.751Z,19.74
2018-09-05T21:39:43.455Z,19.78
2018-09-05T21:44:40.930Z,19.55
2018-09-05T21:49:38.315Z,19.45
2018-09-05T21:54:35.827Z,19.54
2018-09-05T21:59:33.272Z,19.51
2018-09-05T22:04:30.691Z,19.57
2018-09-05T22:09:32.824Z,19.45
2018-09-05T22:14:30.302Z,19.33
2018-09-05T22:19:27.744Z,19.16
2018-09-05T22:24:25.178Z,19.16
2018-09-05T22:29:22.664Z,19.11
2018-09-05T22:34:20.088Z,18.81
2018-09-05T22:39:32.979Z,18.89
2018-09-05T22:44:41.820Z,18.68
2018-09-05T22:49:56.052Z,18.65
2018-09-05T22:55:10.236Z,18.75
2018-09-05T23:00:28.660Z,18.62
2018-09-05T23:06:24.013Z,18.57
2018-09-05T23:12:36.693Z,18.52
2018-09-05T23:17:45.487Z,18.38
2018-09-05T23:22:54.143Z,18.35
2018-09-05T23:27:51.558Z,18.34
2018-09-05T23:32:48.981Z,18.13
2018-09-05T23:37:46.394Z,18.11
2018-09-05T23:42:43.804Z,18.12
2018-09-05T23:47:41.232Z,17.97
2018-09-05T23:52:38.639Z,17.94
2018-09-05T23:57:37.939Z,17.88
